Time;durP1;ratioP1;P1;durP2;ratioP2;P2;SDS_P1;SDS_P2;PMS_P1;PMS_P2;Temp;Humidity;BMP_temperature;BMP_pressure;BME280_temperature;BME280_humidity;BME280_pressure;Samples;Min_cycle;Max_cycle;Signal;HPM_P1;HPM_P2
2021/04/25 00:00:59;;;;;;;5.13;2.30;;;;;;;;;;5037396;28;20459;-70
2021/04/25 00:03:27;;;;;;;4.93;2.60;;;;;;;;;;5038652;28;20462;-70
2021/04/25 00:05:54;;;;;;;6.83;2.93;;;;;;;;;;5037219;28;20508;-70
2021/04/25 00:08:22;;;;;;;14.10;3.50;;;;;;;;;;5037349;28;20467;-70
2021/04/25 00:10:50;;;;;;;7.93;2.90;;;;;;;;;;5036813;28;20489;-70
2021/04/25 00:13:17;;;;;;;9.43;3.20;;;;;;;;;;5037079;28;20463;-70
2021/04/25 00:15:46;;;;;;;4.43;1.73;;;;;;;;;;5036487;28;20458;-70
2021/04/25 00:18:14;;;;;;;5.53;2.13;;;;;;;;;;5036990;28;20643;-70
2021/04/25 00:20:42;;;;;;;4.97;3.00;;;;;;;;;;5037072;28;20863;-70
2021/04/25 00:23:09;;;;;;;7.73;3.10;;;;;;;;;;5036877;28;20474;-70
2021/04/25 00:25:38;;;;;;;6.87;3.57;;;;;;;;;;5035831;28;20478;-70
2021/04/25 00:28:06;;;;;;;6.80;3.63;;;;;;;;;;5036688;28;20536;-70
2021/04/25 00:30:34;;;;;;;6.20;3.20;;;;;;;;;;5036955;28;20482;-70
2021/04/25 00:33:03;;;;;;;12.77;4.07;;;;;;;;;;5037038;28;20747;-70
2021/04/25 00:35:31;;;;;;;5.13;2.60;;;;;;;;;;5036306;28;20559;-70
2021/04/25 00:37:58;;;;;;;7.20;3.07;;;;;;;;;;5036457;28;20544;-70
2021/04/25 00:40:27;;;;;;;6.33;2.90;;;;;;;;;;5036421;28;20459;-70
2021/04/25 00:42:54;;;;;;;7.63;2.27;;;;;;;;;;5035988;28;20462;-70
2021/04/25 00:45:22;;;;;;;6.83;3.10;;;;;;;;;;5036642;28;20486;-70
2021/04/25 00:47:51;;;;;;;9.60;2.63;;;;;;;;;;5037245;28;20467;-70
2021/04/25 00:50:21;;;;;;;6.77;2.80;;;;;;;;;;5036641;28;20453;-70
2021/04/25 00:52:49;;;;;;;5.57;3.23;;;;;;;;;;5036362;28;20462;-70
2021/04/25 00:55:18;;;;;;;6.67;3.43;;;;;;;;;;5036274;28;20549;-70
2021/04/25 00:57:47;;;;;;;7.87;2.90;;;;;;;;;;5036728;28;20933;-70
2021/04/25 01:00:15;;;;;;;5.03;3.03;;;;;;;;;;5036547;28;20459;-70
2021/04/25 01:02:43;;;;;;;7.13;2.20;;;;;;;;;;5036176;28;20466;-70
2021/04/25 01:05:13;;;;;;;8.37;2.90;;;;;;;;;;5036365;28;20465;-70
2021/04/25 01:07:42;;;;;;;4.53;2.10;;;;;;;;;;5036335;28;20470;-70
2021/04/25 01:10:10;;;;;;;9.53;2.63;;;;;;;;;;5036022;28;20478;-70
2021/04/25 01:12:38;;;;;;;5.20;2.10;;;;;;;;;;5036635;28;20455;-70
2021/04/25 01:15:07;;;;;;;6.17;3.00;;;;;;;;;;5036516;28;20454;-70
2021/04/25 01:17:35;;;;;;;3.90;2.30;;;;;;;;;;5035946;28;20619;-70
2021/04/25 01:20:04;;;;;;;9.27;2.90;;;;;;;;;;5036009;28;20467;-70
2021/04/25 01:22:33;;;;;;;4.73;2.40;;;;;;;;;;5036172;28;20451;-70
2021/04/25 01:25:01;;;;;;;4.20;2.00;;;;;;;;;;5036371;28;20459;-70
2021/04/25 01:27:29;;;;;;;5.80;2.40;;;;;;;;;;5036151;28;20462;-70
2021/04/25 01:29:57;;;;;;;7.10;4.23;;;;;;;;;;5036452;28;20462;-70
2021/04/25 01:32:25;;;;;;;10.43;3.10;;;;;;;;;;5036357;28;20502;-70
2021/04/25 01:34:52;;;;;;;6.43;2.33;;;;;;;;;;5036097;28;20466;-70
2021/04/25 01:37:20;;;;;;;4.70;1.90;;;;;;;;;;5036583;28;20491;-70
2021/04/25 01:39:48;;;;;;;10.33;2.93;;;;;;;;;;5037576;28;20556;-70
2021/04/25 01:42:35;;;;;;;5.47;3.03;;;;;;;;;;5037855;28;20471;-70
2021/04/25 01:45:07;;;;;;;5.43;2.03;;;;;;;;;;5027453;28;20455;-70
2021/04/25 01:47:35;;;;;;;4.27;2.20;;;;;;;;;;5039006;28;20462;-70
2021/04/25 01:50:03;;;;;;;5.87;2.33;;;;;;;;;;5040079;28;20458;-70
2021/04/25 01:52:31;;;;;;;4.87;1.53;;;;;;;;;;5039413;28;20731;-70
2021/04/25 01:55:08;;;;;;;6.80;2.10;;;;;;;;;;5040159;28;20455;-70
2021/04/25 01:57:36;;;;;;;6.00;1.90;;;;;;;;;;5039954;28;20494;-71
2021/04/25 02:00:09;;;;;;;8.03;2.17;;;;;;;;;;5039173;28;20465;-70
2021/04/25 02:02:37;;;;;;;4.77;1.97;;;;;;;;;;5039467;28;20603;-70
2021/04/25 02:05:15;;;;;;;4.33;2.03;;;;;;;;;;5039079;28;20451;-70
2021/04/25 02:07:48;;;;;;;13.77;2.60;;;;;;;;;;5039450;28;20811;-71
2021/04/25 02:10:17;;;;;;;4.07;1.67;;;;;;;;;;5038514;28;20459;-71
2021/04/25 02:12:45;;;;;;;5.70;2.57;;;;;;;;;;5039570;28;21170;-70
2021/04/25 02:15:14;;;;;;;6.73;2.30;;;;;;;;;;5039482;28;20459;-70
2021/04/25 02:17:42;;;;;;;6.00;2.50;;;;;;;;;;5039192;28;20490;-70
2021/04/25 02:20:10;;;;;;;3.80;1.83;;;;;;;;;;5038919;28;20461;-70
2021/04/25 02:22:40;;;;;;;5.40;2.50;;;;;;;;;;5038877;28;20475;-70
2021/04/25 02:25:08;;;;;;;3.70;1.90;;;;;;;;;;5039404;28;20459;-70
2021/04/25 02:27:36;;;;;;;7.33;1.93;;;;;;;;;;5039303;28;20473;-70
2021/04/25 02:30:05;;;;;;;3.17;1.63;;;;;;;;;;5039466;28;20574;-71
2021/04/25 02:32:34;;;;;;;3.83;1.90;;;;;;;;;;5040156;28;20532;-70
2021/04/25 02:35:02;;;;;;;13.03;2.33;;;;;;;;;;5039353;28;20458;-71
2021/04/25 02:37:30;;;;;;;5.40;1.70;;;;;;;;;;5039213;28;20498;-70
2021/04/25 02:40:00;;;;;;;7.97;2.23;;;;;;;;;;5038673;28;20536;-70
2021/04/25 02:42:28;;;;;;;3.73;2.03;;;;;;;;;;5021864;28;20482;-70
2021/04/25 02:44:57;;;;;;;7.07;1.80;;;;;;;;;;5020529;28;20452;-70
2021/04/25 02:47:25;;;;;;;3.40;1.43;;;;;;;;;;5026655;28;20467;-71
2021/04/25 02:49:53;;;;;;;3.63;1.90;;;;;;;;;;5039344;28;20464;-70
2021/04/25 02:52:25;;;;;;;3.10;1.60;;;;;;;;;;5038468;28;20455;-71
2021/04/25 02:55:00;;;;;;;7.90;2.20;;;;;;;;;;5040008;28;20524;-70
2021/04/25 02:57:38;;;;;;;6.63;1.53;;;;;;;;;;5028593;28;20544;-71
2021/04/25 03:00:24;;;;;;;3.33;1.60;;;;;;;;;;5037582;28;20469;-70
2021/04/25 03:03:00;;;;;;;6.40;2.10;;;;;;;;;;5038066;28;20458;-70
2021/04/25 03:05:35;;;;;;;4.30;2.03;;;;;;;;;;5037938;28;20846;-70
2021/04/25 03:08:14;;;;;;;3.53;1.80;;;;;;;;;;5037678;28;20561;-71
2021/04/25 03:11:07;;;;;;;3.60;1.53;;;;;;;;;;5038103;28;20529;-71
2021/04/25 03:13:57;;;;;;;6.63;2.13;;;;;;;;;;5038475;28;20459;-70
2021/04/25 03:16:38;;;;;;;3.30;1.53;;;;;;;;;;5038427;28;20450;-70
2021/04/25 03:19:27;;;;;;;5.17;1.40;;;;;;;;;;5038412;28;20467;-70
2021/04/25 03:22:05;;;;;;;15.03;1.80;;;;;;;;;;5038233;28;20878;-70
2021/04/25 03:24:44;;;;;;;10.83;1.77;;;;;;;;;;5038227;28;20490;-70
2021/04/25 03:27:21;;;;;;;8.80;2.20;;;;;;;;;;5036287;28;20454;-70
2021/04/25 03:29:57;;;;;;;3.57;1.80;;;;;;;;;;5038044;28;20466;-70
2021/04/25 03:32:35;;;;;;;3.80;1.50;;;;;;;;;;5038138;28;20463;-70
2021/04/25 03:35:11;;;;;;;5.37;1.60;;;;;;;;;;5038014;28;20881;-70
2021/04/25 03:37:47;;;;;;;7.57;1.50;;;;;;;;;;5037644;28;20490;-70
2021/04/25 03:40:18;;;;;;;7.30;2.17;;;;;;;;;;5037854;28;20600;-70
2021/04/25 03:42:58;;;;;;;8.60;1.60;;;;;;;;;;5038020;28;20763;-70
2021/04/25 03:45:26;;;;;;;5.40;1.77;;;;;;;;;;5037640;28;20514;-70
2021/04/25 03:47:55;;;;;;;4.10;1.60;;;;;;;;;;5038337;28;20526;-70
2021/04/25 03:50:25;;;;;;;6.63;2.00;;;;;;;;;;5037791;28;20450;-70
2021/04/25 03:52:55;;;;;;;5.43;1.83;;;;;;;;;;5037526;28;20465;-70
2021/04/25 03:55:24;;;;;;;12.40;2.03;;;;;;;;;;5037603;28;20465;-70
2021/04/25 03:57:51;;;;;;;9.17;1.67;;;;;;;;;;5037462;28;20577;-69
2021/04/25 04:00:19;;;;;;;5.90;1.63;;;;;;;;;;5035343;28;20497;-71
2021/04/25 04:02:48;;;;;;;3.13;1.53;;;;;;;;;;5031124;28;20463;-71
2021/04/25 04:05:18;;;;;;;5.43;2.40;;;;;;;;;;5036985;28;20466;-69
2021/04/25 04:07:46;;;;;;;7.83;2.37;;;;;;;;;;5038524;28;20454;-71
2021/04/25 04:10:15;;;;;;;5.63;1.97;;;;;;;;;;5038369;28;20455;-69
2021/04/25 04:12:45;;;;;;;4.50;1.77;;;;;;;;;;5033442;28;20502;-70
2021/04/25 04:15:13;;;;;;;6.90;1.63;;;;;;;;;;5038376;28;20462;-70
2021/04/25 04:17:40;;;;;;;4.33;2.13;;;;;;;;;;5038400;28;20582;-70
2021/04/25 04:20:08;;;;;;;6.93;2.50;;;;;;;;;;5038449;28;20867;-70
2021/04/25 04:22:36;;;;;;;6.40;2.20;;;;;;;;;;5039233;28;20458;-71
2021/04/25 04:25:04;;;;;;;7.80;1.70;;;;;;;;;;5038025;28;20458;-71
2021/04/25 04:27:31;;;;;;;6.10;1.87;;;;;;;;;;5039284;28;20778;-70
2021/04/25 04:30:00;;;;;;;6.90;1.33;;;;;;;;;;5037894;28;20744;-70
2021/04/25 04:32:30;;;;;;;5.63;1.70;;;;;;;;;;5036505;28;20487;-71
2021/04/25 04:35:01;;;;;;;4.50;1.53;;;;;;;;;;5037422;28;20482;-70
2021/04/25 04:37:28;;;;;;;9.63;1.87;;;;;;;;;;5032186;28;20545;-70
2021/04/25 04:39:56;;;;;;;5.70;2.07;;;;;;;;;;5036989;28;20477;-70
2021/04/25 04:42:24;;;;;;;3.90;1.70;;;;;;;;;;5036978;28;20462;-69
2021/04/25 04:44:51;;;;;;;7.60;2.77;;;;;;;;;;5037065;28;20851;-70
2021/04/25 04:47:18;;;;;;;5.83;1.60;;;;;;;;;;5036913;28;20462;-70
2021/04/25 04:49:46;;;;;;;3.87;1.70;;;;;;;;;;5037177;28;20463;-70
2021/04/25 04:52:14;;;;;;;7.13;1.83;;;;;;;;;;5037374;28;20546;-70
2021/04/25 04:54:41;;;;;;;4.70;1.57;;;;;;;;;;5037406;28;20459;-70
2021/04/25 04:57:16;;;;;;;6.07;1.83;;;;;;;;;;5034038;28;20482;-71
2021/04/25 04:59:44;;;;;;;3.77;1.53;;;;;;;;;;5037504;28;20468;-69
2021/04/25 05:02:12;;;;;;;6.13;3.07;;;;;;;;;;5036688;28;20930;-70
2021/04/25 05:04:39;;;;;;;5.10;1.23;;;;;;;;;;5037168;28;20476;-70
2021/04/25 05:07:06;;;;;;;7.37;1.50;;;;;;;;;;5037302;28;20463;-70
2021/04/25 05:09:33;;;;;;;3.27;1.20;;;;;;;;;;5037160;28;20459;-70
2021/04/25 05:12:01;;;;;;;3.77;1.13;;;;;;;;;;5037491;28;20470;-69
2021/04/25 05:14:29;;;;;;;6.77;1.23;;;;;;;;;;5038481;28;20459;-70
2021/04/25 05:16:56;;;;;;;5.10;1.70;;;;;;;;;;5040568;28;20486;-69
2021/04/25 05:19:25;;;;;;;6.20;1.63;;;;;;;;;;5040990;28;20883;-70
2021/04/25 05:21:54;;;;;;;10.57;1.40;;;;;;;;;;5040669;28;20462;-70
2021/04/25 05:24:22;;;;;;;9.00;2.33;;;;;;;;;;5041343;28;20462;-70
2021/04/25 05:26:51;;;;;;;7.53;1.53;;;;;;;;;;5040712;28;20677;-70
2021/04/25 05:29:20;;;;;;;2.73;1.20;;;;;;;;;;5040334;28;20455;-70
2021/04/25 05:31:48;;;;;;;10.90;2.07;;;;;;;;;;5040743;28;20944;-70
2021/04/25 05:34:18;;;;;;;4.67;1.63;;;;;;;;;;5040244;28;20663;-70
2021/04/25 05:36:46;;;;;;;4.30;1.57;;;;;;;;;;5040462;28;20450;-71
2021/04/25 05:39:14;;;;;;;4.27;1.40;;;;;;;;;;5040566;28;20542;-70
2021/04/25 05:41:46;;;;;;;4.43;1.27;;;;;;;;;;5040174;28;20786;-70
2021/04/25 05:44:16;;;;;;;11.30;1.53;;;;;;;;;;5040129;28;21128;-71
2021/04/25 05:46:48;;;;;;;5.13;1.33;;;;;;;;;;5040287;28;20473;-70
2021/04/25 05:49:15;;;;;;;12.03;1.77;;;;;;;;;;5040299;28;20473;-70
2021/04/25 05:51:43;;;;;;;8.67;1.90;;;;;;;;;;5038824;28;20447;-70
2021/04/25 05:54:10;;;;;;;9.90;1.57;;;;;;;;;;5040427;28;20470;-70
2021/04/25 05:56:39;;;;;;;6.00;2.00;;;;;;;;;;5034595;28;20535;-69
2021/04/25 05:59:10;;;;;;;5.17;2.20;;;;;;;;;;5020362;28;20479;-71
2021/04/25 06:01:41;;;;;;;4.30;1.87;;;;;;;;;;5020047;28;20459;-71
2021/04/25 06:04:09;;;;;;;7.13;1.57;;;;;;;;;;5019991;28;20463;-69
2021/04/25 06:06:37;;;;;;;6.03;1.80;;;;;;;;;;5021131;28;20460;-70
2021/04/25 06:09:06;;;;;;;6.27;2.30;;;;;;;;;;5019812;28;20467;-70
2021/04/25 06:11:34;;;;;;;5.97;1.53;;;;;;;;;;5020386;28;20601;-70
2021/04/25 06:14:04;;;;;;;5.50;1.43;;;;;;;;;;5021056;28;20463;-71
2021/04/25 06:16:31;;;;;;;9.13;2.00;;;;;;;;;;5019470;28;20474;-70
2021/04/25 06:18:59;;;;;;;4.20;1.53;;;;;;;;;;5019974;28;20491;-70
2021/04/25 06:21:28;;;;;;;6.20;1.83;;;;;;;;;;5019741;28;20452;-70
2021/04/25 06:23:55;;;;;;;8.80;2.50;;;;;;;;;;5019216;28;20471;-70
2021/04/25 06:26:24;;;;;;;5.13;1.93;;;;;;;;;;5031135;28;20708;-70
2021/04/25 06:28:52;;;;;;;5.30;2.43;;;;;;;;;;5039383;28;20474;-71
2021/04/25 06:31:21;;;;;;;5.50;2.17;;;;;;;;;;5037650;28;20465;-70
2021/04/25 06:33:49;;;;;;;5.37;2.10;;;;;;;;;;5038566;28;20470;-70
2021/04/25 06:36:32;;;;;;;5.20;1.57;;;;;;;;;;5039557;28;20459;-70
2021/04/25 06:39:04;;;;;;;7.07;2.20;;;;;;;;;;5038860;28;20498;-70
2021/04/25 06:41:33;;;;;;;7.30;2.13;;;;;;;;;;5038965;28;20462;-70
2021/04/25 06:44:08;;;;;;;5.57;2.17;;;;;;;;;;5039494;28;20525;-70
2021/04/25 06:46:38;;;;;;;4.00;1.60;;;;;;;;;;5038381;28;20461;-70
2021/04/25 06:49:11;;;;;;;4.13;1.83;;;;;;;;;;5038712;28;20463;-71
2021/04/25 06:51:40;;;;;;;5.80;1.93;;;;;;;;;;5038418;28;20546;-71
2021/04/25 06:54:15;;;;;;;11.40;3.23;;;;;;;;;;5038661;28;20462;-70
2021/04/25 06:56:46;;;;;;;7.43;2.47;;;;;;;;;;5038493;28;20462;-70
2021/04/25 06:59:13;;;;;;;4.20;1.97;;;;;;;;;;5038766;28;20455;-70
2021/04/25 07:01:42;;;;;;;6.80;2.10;;;;;;;;;;5038688;28;20468;-69
2021/04/25 07:04:10;;;;;;;6.37;2.10;;;;;;;;;;5038402;28;20733;-69
2021/04/25 07:06:37;;;;;;;5.10;2.13;;;;;;;;;;5038141;28;20462;-69
2021/04/25 07:09:09;;;;;;;6.03;2.07;;;;;;;;;;5038360;28;20474;-70
2021/04/25 07:11:39;;;;;;;8.20;2.10;;;;;;;;;;5038024;28;20486;-69
2021/04/25 07:14:07;;;;;;;7.90;1.80;;;;;;;;;;5037939;28;20764;-70
2021/04/25 07:16:35;;;;;;;5.70;1.87;;;;;;;;;;5037758;28;20455;-70
2021/04/25 07:19:03;;;;;;;3.77;1.40;;;;;;;;;;5038159;28;20533;-70
2021/04/25 07:21:31;;;;;;;4.27;1.70;;;;;;;;;;5038377;28;20537;-69
2021/04/25 07:23:59;;;;;;;4.90;1.60;;;;;;;;;;5036959;28;20867;-70
2021/04/25 07:26:27;;;;;;;5.07;2.30;;;;;;;;;;5038268;28;20822;-69
2021/04/25 07:28:56;;;;;;;4.07;1.80;;;;;;;;;;5037566;28;20483;-70
2021/04/25 07:31:24;;;;;;;7.50;1.67;;;;;;;;;;5038277;28;20455;-70
2021/04/25 07:33:52;;;;;;;4.10;1.47;;;;;;;;;;5037580;28;20746;-70
2021/04/25 07:36:19;;;;;;;3.73;1.50;;;;;;;;;;5038218;28;20459;-69
2021/04/25 07:38:47;;;;;;;4.40;1.77;;;;;;;;;;5037281;28;20930;-70
2021/04/25 07:41:15;;;;;;;4.43;2.63;;;;;;;;;;5038249;28;20749;-70
2021/04/25 07:43:44;;;;;;;7.30;2.00;;;;;;;;;;5038319;28;20952;-70
2021/04/25 07:46:15;;;;;;;3.80;1.40;;;;;;;;;;5038124;28;20618;-70
2021/04/25 07:48:43;;;;;;;7.10;1.40;;;;;;;;;;5037400;28;20462;-70
2021/04/25 07:51:11;;;;;;;5.33;1.43;;;;;;;;;;5037551;28;20449;-70
2021/04/25 07:53:39;;;;;;;4.00;1.70;;;;;;;;;;5037751;28;20738;-70
2021/04/25 07:56:07;;;;;;;4.60;0.90;;;;;;;;;;5037836;28;20527;-70
2021/04/25 07:58:34;;;;;;;4.73;2.60;;;;;;;;;;5037420;28;20549;-70
2021/04/25 08:01:02;;;;;;;2.70;1.00;;;;;;;;;;5033481;28;20525;-70
2021/04/25 08:03:32;;;;;;;4.20;0.80;;;;;;;;;;5037257;28;20471;-70
2021/04/25 08:06:00;;;;;;;3.80;1.03;;;;;;;;;;5036720;28;20466;-70
2021/04/25 08:08:28;;;;;;;3.37;0.97;;;;;;;;;;5037329;28;20783;-69
2021/04/25 08:10:55;;;;;;;4.20;0.90;;;;;;;;;;5036812;28;20503;-70
2021/04/25 08:13:22;;;;;;;5.80;0.87;;;;;;;;;;5037299;28;20743;-70
2021/04/25 08:15:53;;;;;;;3.27;1.10;;;;;;;;;;5036581;28;20451;-70
2021/04/25 08:18:21;;;;;;;4.30;1.97;;;;;;;;;;5038041;28;20857;-70
2021/04/25 08:21:00;;;;;;;4.63;0.90;;;;;;;;;;5036699;28;20752;-70
2021/04/25 08:23:28;;;;;;;4.67;0.97;;;;;;;;;;5037351;28;20867;-70
2021/04/25 08:25:56;;;;;;;2.47;1.10;;;;;;;;;;5036931;28;20721;-70
2021/04/25 08:28:25;;;;;;;2.63;0.70;;;;;;;;;;5036303;28;20458;-70
2021/04/25 08:30:53;;;;;;;2.57;1.00;;;;;;;;;;5036664;28;20466;-69
2021/04/25 08:33:37;;;;;;;2.10;0.60;;;;;;;;;;5036707;28;20989;-70
2021/04/25 08:36:06;;;;;;;4.00;0.80;;;;;;;;;;5036822;28;20478;-70
2021/04/25 08:38:38;;;;;;;5.80;1.13;;;;;;;;;;5035716;28;20548;-70
2021/04/25 08:41:06;;;;;;;5.00;0.97;;;;;;;;;;5035951;28;20570;-70
2021/04/25 08:43:37;;;;;;;3.47;0.97;;;;;;;;;;5035765;28;20467;-68
2021/04/25 08:46:05;;;;;;;4.53;0.90;;;;;;;;;;5036112;28;20475;-68
2021/04/25 08:48:35;;;;;;;5.20;1.10;;;;;;;;;;5036655;28;20462;-70
2021/04/25 08:51:05;;;;;;;5.27;1.20;;;;;;;;;;5036330;28;20473;-70
2021/04/25 08:53:35;;;;;;;3.17;0.70;;;;;;;;;;5036382;28;20455;-69
2021/04/25 08:56:03;;;;;;;4.27;0.97;;;;;;;;;;5035601;28;20494;-70
2021/04/25 08:58:31;;;;;;;3.57;0.80;;;;;;;;;;5033977;28;20478;-69
2021/04/25 09:00:58;;;;;;;3.33;0.80;;;;;;;;;;5034772;28;20470;-70
2021/04/25 09:03:26;;;;;;;3.20;0.70;;;;;;;;;;5035912;28;20470;-71
2021/04/25 09:05:54;;;;;;;3.67;0.80;;;;;;;;;;5036514;28;20571;-70
2021/04/25 09:08:24;;;;;;;3.33;0.80;;;;;;;;;;5036365;28;20466;-70
2021/04/25 09:10:56;;;;;;;2.80;0.77;;;;;;;;;;5035351;28;20459;-69
2021/04/25 09:13:25;;;;;;;2.77;0.80;;;;;;;;;;5035861;28;20466;-69
2021/04/25 09:15:53;;;;;;;2.60;0.83;;;;;;;;;;5035035;28;20827;-69
2021/04/25 09:18:32;;;;;;;6.37;0.70;;;;;;;;;;5035438;28;20490;-69
2021/04/25 09:21:06;;;;;;;3.30;0.93;;;;;;;;;;5034667;28;20514;-69
2021/04/25 09:23:33;;;;;;;3.80;0.80;;;;;;;;;;5035457;28;20470;-69
2021/04/25 09:26:04;;;;;;;3.40;0.80;;;;;;;;;;5034377;28;20455;-69
2021/04/25 09:28:31;;;;;;;2.30;0.70;;;;;;;;;;5034992;28;20808;-69
2021/04/25 09:31:03;;;;;;;3.70;0.97;;;;;;;;;;5034686;28;20538;-69
2021/04/25 09:33:48;;;;;;;2.30;0.60;;;;;;;;;;5035511;28;20497;-69
2021/04/25 09:36:16;;;;;;;2.50;0.60;;;;;;;;;;5035338;28;20450;-69
2021/04/25 09:38:43;;;;;;;8.63;0.80;;;;;;;;;;5034691;28;20545;-69
2021/04/25 09:41:24;;;;;;;2.90;0.80;;;;;;;;;;5036960;28;20524;-69
2021/04/25 09:43:54;;;;;;;3.00;1.17;;;;;;;;;;5036159;28;20498;-69
2021/04/25 09:46:21;;;;;;;2.97;0.80;;;;;;;;;;5035670;28;20482;-69
2021/04/25 09:48:49;;;;;;;2.33;0.73;;;;;;;;;;5036127;28;20524;-69
2021/04/25 09:51:17;;;;;;;6.17;0.77;;;;;;;;;;5035948;28;20863;-70
2021/04/25 09:53:59;;;;;;;2.37;0.67;;;;;;;;;;5035752;28;20463;-70
2021/04/25 09:56:36;;;;;;;2.80;0.70;;;;;;;;;;5035536;28;20450;-69
2021/04/25 09:59:04;;;;;;;2.33;0.80;;;;;;;;;;5035780;28;20935;-70
2021/04/25 10:01:36;;;;;;;2.20;0.50;;;;;;;;;;5037909;28;20439;-70
2021/04/25 10:04:04;;;;;;;2.83;1.00;;;;;;;;;;5038873;28;20557;-70
2021/04/25 10:06:49;;;;;;;3.50;1.20;;;;;;;;;;5038913;28;20473;-70
2021/04/25 10:09:17;;;;;;;2.30;0.67;;;;;;;;;;5038643;28;20516;-70
2021/04/25 10:11:46;;;;;;;3.80;0.70;;;;;;;;;;5039652;28;20754;-70
2021/04/25 10:14:15;;;;;;;2.73;0.70;;;;;;;;;;5040636;28;20459;-68
2021/04/25 10:16:43;;;;;;;3.63;1.10;;;;;;;;;;5038310;28;20858;-70
2021/04/25 10:19:14;;;;;;;3.23;0.83;;;;;;;;;;5030173;28;20510;-70
2021/04/25 10:21:44;;;;;;;2.67;0.60;;;;;;;;;;5038607;28;20478;-71
2021/04/25 10:24:15;;;;;;;2.80;0.63;;;;;;;;;;5038345;28;20757;-68
2021/04/25 10:26:51;;;;;;;2.50;0.70;;;;;;;;;;5038419;28;20459;-70
2021/04/25 10:29:25;;;;;;;4.80;0.90;;;;;;;;;;5038953;28;20719;-70
2021/04/25 10:31:56;;;;;;;4.40;0.80;;;;;;;;;;5039061;28;20454;-71
2021/04/25 10:34:23;;;;;;;2.40;0.63;;;;;;;;;;5038471;28;20497;-70
2021/04/25 10:36:58;;;;;;;3.40;0.80;;;;;;;;;;5037920;28;20451;-70
2021/04/25 10:39:38;;;;;;;3.10;0.80;;;;;;;;;;5037931;28;20903;-70
2021/04/25 10:42:26;;;;;;;5.37;1.37;;;;;;;;;;5037548;28;20466;-69
2021/04/25 10:45:25;;;;;;;2.77;0.70;;;;;;;;;;5037235;28;20935;-69
2021/04/25 10:48:14;;;;;;;3.30;1.10;;;;;;;;;;5038569;28;20552;-70
2021/04/25 10:50:46;;;;;;;4.13;0.77;;;;;;;;;;5031894;28;20868;-69
2021/04/25 10:53:21;;;;;;;2.77;1.00;;;;;;;;;;5018744;28;20545;-69
2021/04/25 10:55:52;;;;;;;4.80;0.53;;;;;;;;;;5032280;28;20489;-69
2021/04/25 10:58:24;;;;;;;3.43;1.43;;;;;;;;;;5037503;28;20793;-70
2021/04/25 11:00:56;;;;;;;2.83;0.70;;;;;;;;;;5037490;28;20451;-70
2021/04/25 11:03:42;;;;;;;3.50;1.10;;;;;;;;;;5037916;28;20490;-69
2021/04/25 11:06:26;;;;;;;3.10;0.93;;;;;;;;;;5038089;28;20542;-69
2021/04/25 11:08:54;;;;;;;2.93;0.80;;;;;;;;;;5037628;28;20467;-69
2021/04/25 11:11:32;;;;;;;3.70;1.50;;;;;;;;;;5037882;28;20840;-69
2021/04/25 11:14:00;;;;;;;3.17;0.60;;;;;;;;;;5037148;28;20463;-69
2021/04/25 11:16:29;;;;;;;2.70;0.53;;;;;;;;;;5036813;28;20542;-69
2021/04/25 11:18:59;;;;;;;3.00;0.77;;;;;;;;;;5037898;28;20499;-69
2021/04/25 11:21:48;;;;;;;3.27;1.13;;;;;;;;;;5037477;28;20756;-69
2021/04/25 11:24:32;;;;;;;3.33;0.80;;;;;;;;;;5037563;28;20851;-69
2021/04/25 11:27:01;;;;;;;2.97;0.80;;;;;;;;;;5037415;28;20534;-71
2021/04/25 11:29:48;;;;;;;4.50;0.80;;;;;;;;;;5036892;28;20503;-69
2021/04/25 11:32:27;;;;;;;3.20;0.90;;;;;;;;;;5037582;28;20469;-69
2021/04/25 11:34:58;;;;;;;2.83;0.80;;;;;;;;;;5037798;28;20463;-69
2021/04/25 11:37:26;;;;;;;2.90;0.70;;;;;;;;;;5037599;28;20473;-70
2021/04/25 11:39:56;;;;;;;2.90;0.93;;;;;;;;;;5037519;28;20463;-69
2021/04/25 11:42:32;;;;;;;3.20;0.70;;;;;;;;;;5036143;28;20478;-68
2021/04/25 11:45:01;;;;;;;3.20;0.87;;;;;;;;;;5037267;28;20466;-70
2021/04/25 11:47:31;;;;;;;2.93;0.83;;;;;;;;;;5036953;28;20516;-70
2021/04/25 11:49:59;;;;;;;4.07;0.80;;;;;;;;;;5037079;28;20478;-70
2021/04/25 11:52:32;;;;;;;3.80;0.70;;;;;;;;;;5037095;28;20871;-70
2021/04/25 11:55:10;;;;;;;2.80;0.80;;;;;;;;;;5033558;28;20513;-70
2021/04/25 11:57:41;;;;;;;3.00;0.73;;;;;;;;;;5034726;28;20819;-70
2021/04/25 12:00:12;;;;;;;2.50;0.80;;;;;;;;;;5036930;28;20454;-70
2021/04/25 12:02:50;;;;;;;4.00;0.83;;;;;;;;;;5037089;28;20470;-68
2021/04/25 12:05:21;;;;;;;3.70;1.13;;;;;;;;;;5036142;28;20800;-68
2021/04/25 12:07:48;;;;;;;2.77;0.87;;;;;;;;;;5036669;28;20875;-70
2021/04/25 12:10:33;;;;;;;5.43;0.80;;;;;;;;;;5035772;28;20454;-70
2021/04/25 12:13:08;;;;;;;2.70;0.70;;;;;;;;;;5015834;28;20534;-69
2021/04/25 12:15:51;;;;;;;3.40;0.80;;;;;;;;;;5015651;28;20535;-70
2021/04/25 12:18:25;;;;;;;3.30;0.80;;;;;;;;;;5015879;28;20502;-70
2021/04/25 12:20:53;;;;;;;3.00;0.80;;;;;;;;;;5016083;28;20521;-70
2021/04/25 12:23:22;;;;;;;2.80;0.80;;;;;;;;;;5016750;28;20467;-70
2021/04/25 12:25:52;;;;;;;2.53;0.70;;;;;;;;;;5016807;28;20610;-70
2021/04/25 12:28:20;;;;;;;3.23;0.60;;;;;;;;;;5016357;28;20794;-70
2021/04/25 12:31:05;;;;;;;4.93;1.20;;;;;;;;;;5028197;28;20481;-70
2021/04/25 12:33:47;;;;;;;3.50;0.90;;;;;;;;;;5015443;28;20471;-70
2021/04/25 12:36:22;;;;;;;3.47;0.80;;;;;;;;;;5014815;28;20453;-70
2021/04/25 12:38:56;;;;;;;5.17;0.83;;;;;;;;;;5015020;28;20512;-69
2021/04/25 12:41:31;;;;;;;3.30;0.90;;;;;;;;;;5020462;28;20476;-70
2021/04/25 12:44:01;;;;;;;2.50;0.70;;;;;;;;;;5015777;28;20561;-70
2021/04/25 12:46:29;;;;;;;5.10;0.77;;;;;;;;;;5015854;28;20455;-70
2021/04/25 12:49:04;;;;;;;3.53;0.73;;;;;;;;;;5016380;28;20913;-70
2021/04/25 12:51:34;;;;;;;2.97;0.80;;;;;;;;;;5015643;28;20455;-70
2021/04/25 12:54:07;;;;;;;3.10;0.80;;;;;;;;;;5015431;28;20475;-70
2021/04/25 12:56:36;;;;;;;2.80;0.67;;;;;;;;;;5014918;28;20463;-70
2021/04/25 12:59:14;;;;;;;2.57;0.73;;;;;;;;;;5015941;28;20788;-70
2021/04/25 13:01:43;;;;;;;3.57;0.80;;;;;;;;;;5015858;28;20454;-70
2021/04/25 13:04:25;;;;;;;3.00;0.80;;;;;;;;;;5015924;28;20463;-70
2021/04/25 13:06:52;;;;;;;2.63;0.80;;;;;;;;;;5015866;28;20475;-69
2021/04/25 13:09:20;;;;;;;2.90;0.80;;;;;;;;;;5018627;28;20928;-69
2021/04/25 13:11:47;;;;;;;2.67;0.70;;;;;;;;;;5036179;28;20455;-69
2021/04/25 13:14:16;;;;;;;3.70;0.90;;;;;;;;;;5036002;28;20454;-69
2021/04/25 13:16:44;;;;;;;2.80;0.80;;;;;;;;;;5035726;28;20463;-69
2021/04/25 13:19:12;;;;;;;2.80;0.70;;;;;;;;;;5035499;28;20486;-69
2021/04/25 13:21:44;;;;;;;2.80;1.10;;;;;;;;;;5035863;28;20461;-69
2021/04/25 13:24:12;;;;;;;3.70;0.77;;;;;;;;;;5035692;28;20454;-69
2021/04/25 13:26:39;;;;;;;3.03;0.70;;;;;;;;;;5034996;28;20474;-69
2021/04/25 13:29:08;;;;;;;2.87;0.70;;;;;;;;;;5035598;28;20998;-69
2021/04/25 13:31:35;;;;;;;3.50;1.07;;;;;;;;;;5034816;28;20892;-69
2021/04/25 13:34:03;;;;;;;3.00;0.70;;;;;;;;;;5035686;28;20478;-69
2021/04/25 13:36:30;;;;;;;2.40;0.70;;;;;;;;;;5038493;28;20458;-70
2021/04/25 13:38:58;;;;;;;3.03;0.87;;;;;;;;;;5039670;28;20498;-70
2021/04/25 13:41:26;;;;;;;2.67;0.73;;;;;;;;;;5039719;28;20470;-70
2021/04/25 13:43:53;;;;;;;2.87;0.60;;;;;;;;;;5040874;28;20477;-70
2021/04/25 13:46:23;;;;;;;2.80;0.80;;;;;;;;;;5039114;28;20553;-69
2021/04/25 13:48:50;;;;;;;5.07;0.93;;;;;;;;;;5018948;28;20464;-70
2021/04/25 13:51:23;;;;;;;2.80;0.63;;;;;;;;;;5029853;28;20457;-70
2021/04/25 13:53:51;;;;;;;4.73;0.70;;;;;;;;;;5037081;28;21118;-70
2021/04/25 13:56:19;;;;;;;5.40;0.70;;;;;;;;;;5038781;28;20455;-70
2021/04/25 13:58:47;;;;;;;2.50;0.70;;;;;;;;;;5038601;28;20738;-70
2021/04/25 14:01:14;;;;;;;5.13;1.40;;;;;;;;;;5037859;28;20466;-70
2021/04/25 14:03:43;;;;;;;3.10;0.70;;;;;;;;;;5038871;28;20773;-70
2021/04/25 14:06:11;;;;;;;3.00;0.90;;;;;;;;;;5038993;28;20470;-70
2021/04/25 14:08:38;;;;;;;6.20;1.10;;;;;;;;;;5038723;28;20474;-69
2021/04/25 14:11:09;;;;;;;3.90;1.07;;;;;;;;;;5036533;28;20505;-70
2021/04/25 14:13:39;;;;;;;3.80;0.90;;;;;;;;;;5022013;28;20458;-70
2021/04/25 14:16:08;;;;;;;2.73;0.97;;;;;;;;;;5037750;28;20462;-70
2021/04/25 14:18:36;;;;;;;3.00;0.80;;;;;;;;;;5037970;28;20536;-69
2021/04/25 14:21:04;;;;;;;4.50;0.80;;;;;;;;;;5038388;28;20509;-70
2021/04/25 14:23:32;;;;;;;2.83;0.70;;;;;;;;;;5037258;28;20494;-69
2021/04/25 14:26:00;;;;;;;2.90;0.60;;;;;;;;;;5023113;28;20460;-70
2021/04/25 14:28:28;;;;;;;2.53;0.70;;;;;;;;;;5026800;28;20467;-70
2021/04/25 14:30:58;;;;;;;3.00;0.70;;;;;;;;;;5037518;28;20466;-70
2021/04/25 14:33:26;;;;;;;2.90;0.77;;;;;;;;;;5038506;28;20939;-69
2021/04/25 14:35:54;;;;;;;3.83;1.00;;;;;;;;;;5038058;28;20459;-69
2021/04/25 14:38:21;;;;;;;2.80;0.70;;;;;;;;;;5037608;28;20486;-69
2021/04/25 14:40:48;;;;;;;5.63;0.80;;;;;;;;;;5038286;28;20477;-69
2021/04/25 14:43:16;;;;;;;2.60;0.70;;;;;;;;;;5038757;28;20478;-69
2021/04/25 14:45:46;;;;;;;3.90;1.20;;;;;;;;;;5035923;28;20455;-71
2021/04/25 14:48:15;;;;;;;3.00;0.87;;;;;;;;;;5035849;28;20470;-70
2021/04/25 14:50:45;;;;;;;3.50;0.70;;;;;;;;;;5037749;28;20466;-70
2021/04/25 14:53:23;;;;;;;3.00;0.70;;;;;;;;;;5037948;28;20952;-70
2021/04/25 14:55:54;;;;;;;2.60;0.70;;;;;;;;;;5038517;28;20737;-71
2021/04/25 14:58:25;;;;;;;2.70;0.73;;;;;;;;;;5037601;28;20529;-69
2021/04/25 15:00:55;;;;;;;3.10;0.80;;;;;;;;;;5036317;28;20473;-70
2021/04/25 15:03:25;;;;;;;2.60;0.80;;;;;;;;;;5037196;28;20466;-70